sensor_id;sensor_type;location;lat;lon;timestamp;temperature;humidity
23233;DHT22;11785;49.500;8.288;2023-06-10T00:00:12;18.40;58.10
23233;DHT22;11785;49.500;8.288;2023-06-10T00:02:40;18.40;58.10
23233;DHT22;11785;49.500;8.288;2023-06-10T00:05:06;18.40;58.10
23233;DHT22;11785;49.500;8.288;2023-06-10T00:07:33;18.30;58.20
23233;DHT22;11785;49.500;8.288;2023-06-10T00:09:59;18.30;58.20
23233;DHT22;11785;49.500;8.288;2023-06-10T00:12:25;18.20;58.20
23233;DHT22;11785;49.500;8.288;2023-06-10T00:14:51;18.20;58.30
23233;DHT22;11785;49.500;8.288;2023-06-10T00:17:18;18.10;58.30
23233;DHT22;11785;49.500;8.288;2023-06-10T00:19:44;18.10;58.40
23233;DHT22;11785;49.500;8.288;2023-06-10T00:22:12;18.00;58.40
23233;DHT22;11785;49.500;8.288;2023-06-10T00:24:37;18.00;58.50
23233;DHT22;11785;49.500;8.288;2023-06-10T00:27:03;18.00;58.50
23233;DHT22;11785;49.500;8.288;2023-06-10T00:29:29;18.00;58.50
23233;DHT22;11785;49.500;8.288;2023-06-10T00:31:55;18.00;58.50
23233;DHT22;11785;49.500;8.288;2023-06-10T00:34:23;18.00;58.60
23233;DHT22;11785;49.500;8.288;2023-06-10T00:36:49;18.00;58.60
23233;DHT22;11785;49.500;8.288;2023-06-10T00:39:14;18.00;58.60
23233;DHT22;11785;49.500;8.288;2023-06-10T00:41:40;18.00;58.60
23233;DHT22;11785;49.500;8.288;2023-06-10T00:44:06;17.90;58.70
23233;DHT22;11785;49.500;8.288;2023-06-10T00:46:31;17.90;58.70
23233;DHT22;11785;49.500;8.288;2023-06-10T00:48:58;17.90;58.80
23233;DHT22;11785;49.500;8.288;2023-06-10T00:51:25;17.90;58.80
23233;DHT22;11785;49.500;8.288;2023-06-10T00:53:52;17.80;58.80
23233;DHT22;11785;49.500;8.288;2023-06-10T00:56:18;17.80;58.90
23233;DHT22;11785;49.500;8.288;2023-06-10T00:58:43;17.70;58.90
23233;DHT22;11785;49.500;8.288;2023-06-10T01:01:10;17.60;59.00
23233;DHT22;11785;49.500;8.288;2023-06-10T01:03:36;17.60;59.00
23233;DHT22;11785;49.500;8.288;2023-06-10T01:06:30;17.60;59.00
23233;DHT22;11785;49.500;8.288;2023-06-10T01:09:13;17.70;59.00
23233;DHT22;11785;49.500;8.288;2023-06-10T01:11:56;17.70;59.00
23233;DHT22;11785;49.500;8.288;2023-06-10T01:14:23;17.70;59.00
23233;DHT22;11785;49.500;8.288;2023-06-10T01:16:49;17.70;59.00
23233;DHT22;11785;49.500;8.288;2023-06-10T01:19:15;17.60;59.10
23233;DHT22;11785;49.500;8.288;2023-06-10T01:21:43;17.60;59.10
23233;DHT22;11785;49.500;8.288;2023-06-10T01:24:14;17.60;59.10
23233;DHT22;11785;49.500;8.288;2023-06-10T01:26:41;17.50;59.10
23233;DHT22;11785;49.500;8.288;2023-06-10T01:31:56;17.50;59.20
23233;DHT22;11785;49.500;8.288;2023-06-10T01:34:24;17.40;59.20
23233;DHT22;11785;49.500;8.288;2023-06-10T01:36:52;17.40;59.20
23233;DHT22;11785;49.500;8.288;2023-06-10T01:39:22;17.30;59.30
23233;DHT22;11785;49.500;8.288;2023-06-10T01:41:49;17.30;59.30
23233;DHT22;11785;49.500;8.288;2023-06-10T01:44:20;17.30;59.30
23233;DHT22;11785;49.500;8.288;2023-06-10T01:46:46;17.20;59.40
23233;DHT22;11785;49.500;8.288;2023-06-10T01:49:12;17.20;59.40
23233;DHT22;11785;49.500;8.288;2023-06-10T01:51:38;17.20;59.40
23233;DHT22;11785;49.500;8.288;2023-06-10T01:54:03;17.20;59.40
23233;DHT22;11785;49.500;8.288;2023-06-10T01:56:29;17.20;59.40
23233;DHT22;11785;49.500;8.288;2023-06-10T01:58:54;17.20;59.40
23233;DHT22;11785;49.500;8.288;2023-06-10T02:01:28;17.10;59.50
23233;DHT22;11785;49.500;8.288;2023-06-10T02:03:53;17.00;59.50
23233;DHT22;11785;49.500;8.288;2023-06-10T02:06:19;17.00;59.50
23233;DHT22;11785;49.500;8.288;2023-06-10T02:08:44;17.00;59.50
23233;DHT22;11785;49.500;8.288;2023-06-10T02:11:10;16.90;59.60
23233;DHT22;11785;49.500;8.288;2023-06-10T02:13:35;16.90;59.60
23233;DHT22;11785;49.500;8.288;2023-06-10T02:16:01;16.80;59.60
23233;DHT22;11785;49.500;8.288;2023-06-10T02:18:27;16.80;59.60
23233;DHT22;11785;49.500;8.288;2023-06-10T02:20:53;16.80;59.70
23233;DHT22;11785;49.500;8.288;2023-06-10T02:23:19;16.70;59.70
23233;DHT22;11785;49.500;8.288;2023-06-10T02:25:44;16.80;59.70
23233;DHT22;11785;49.500;8.288;2023-06-10T02:28:10;16.70;59.70
23233;DHT22;11785;49.500;8.288;2023-06-10T02:30:39;16.70;59.70
23233;DHT22;11785;49.500;8.288;2023-06-10T02:33:05;16.60;59.80
23233;DHT22;11785;49.500;8.288;2023-06-10T02:35:30;16.60;59.80
23233;DHT22;11785;49.500;8.288;2023-06-10T02:37:56;16.60;59.80
23233;DHT22;11785;49.500;8.288;2023-06-10T02:40:21;16.60;59.80
23233;DHT22;11785;49.500;8.288;2023-06-10T02:42:47;16.60;59.80
23233;DHT22;11785;49.500;8.288;2023-06-10T02:45:12;16.60;59.80
23233;DHT22;11785;49.500;8.288;2023-06-10T02:47:38;16.60;59.80
23233;DHT22;11785;49.500;8.288;2023-06-10T02:50:05;16.60;59.80
23233;DHT22;11785;49.500;8.288;2023-06-10T02:52:31;16.50;59.90
23233;DHT22;11785;49.500;8.288;2023-06-10T02:54:56;16.50;59.90
23233;DHT22;11785;49.500;8.288;2023-06-10T02:57:22;16.50;59.90
23233;DHT22;11785;49.500;8.288;2023-06-10T02:59:47;16.50;59.90
23233;DHT22;11785;49.500;8.288;2023-06-10T03:02:13;16.40;59.90
23233;DHT22;11785;49.500;8.288;2023-06-10T03:04:38;16.40;59.90
23233;DHT22;11785;49.500;8.288;2023-06-10T03:07:04;16.40;59.90
23233;DHT22;11785;49.500;8.288;2023-06-10T03:09:32;16.40;60.00
23233;DHT22;11785;49.500;8.288;2023-06-10T03:11:58;16.30;60.70
23233;DHT22;11785;49.500;8.288;2023-06-10T03:14:25;16.30;60.70
23233;DHT22;11785;49.500;8.288;2023-06-10T03:16:50;16.30;61.00
23233;DHT22;11785;49.500;8.288;2023-06-10T03:19:16;16.30;61.10
23233;DHT22;11785;49.500;8.288;2023-06-10T03:21:44;16.30;61.40
23233;DHT22;11785;49.500;8.288;2023-06-10T03:24:10;16.30;61.40
23233;DHT22;11785;49.500;8.288;2023-06-10T03:26:36;16.30;61.60
23233;DHT22;11785;49.500;8.288;2023-06-10T03:29:02;16.30;61.60
23233;DHT22;11785;49.500;8.288;2023-06-10T03:31:27;16.30;61.50
23233;DHT22;11785;49.500;8.288;2023-06-10T03:33:53;16.30;61.10
23233;DHT22;11785;49.500;8.288;2023-06-10T03:36:18;16.40;60.20
23233;DHT22;11785;49.500;8.288;2023-06-10T03:38:44;16.50;59.90
23233;DHT22;11785;49.500;8.288;2023-06-10T03:41:09;16.60;59.90
23233;DHT22;11785;49.500;8.288;2023-06-10T03:43:35;16.70;59.80
23233;DHT22;11785;49.500;8.288;2023-06-10T03:46:00;16.80;59.70
23233;DHT22;11785;49.500;8.288;2023-06-10T03:48:26;17.00;59.60
23233;DHT22;11785;49.500;8.288;2023-06-10T03:50:51;17.10;59.60
23233;DHT22;11785;49.500;8.288;2023-06-10T03:53:17;17.20;59.50
23233;DHT22;11785;49.500;8.288;2023-06-10T03:55:43;17.30;59.50
23233;DHT22;11785;49.500;8.288;2023-06-10T03:58:08;17.30;59.40
23233;DHT22;11785;49.500;8.288;2023-06-10T04:00:34;17.40;59.40
23233;DHT22;11785;49.500;8.288;2023-06-10T04:03:07;17.50;59.40
23233;DHT22;11785;49.500;8.288;2023-06-10T04:05:34;17.50;59.30
23233;DHT22;11785;49.500;8.288;2023-06-10T04:08:00;17.50;59.30
23233;DHT22;11785;49.500;8.288;2023-06-10T04:10:26;17.60;59.30
23233;DHT22;11785;49.500;8.288;2023-06-10T04:12:52;17.60;59.30
23233;DHT22;11785;49.500;8.288;2023-06-10T04:15:18;17.70;59.20
23233;DHT22;11785;49.500;8.288;2023-06-10T04:17:43;17.70;59.20
23233;DHT22;11785;49.500;8.288;2023-06-10T04:20:09;17.80;59.20
23233;DHT22;11785;49.500;8.288;2023-06-10T04:22:35;17.80;59.20
23233;DHT22;11785;49.500;8.288;2023-06-10T04:25:01;17.80;59.10
23233;DHT22;11785;49.500;8.288;2023-06-10T04:27:27;17.90;59.10
23233;DHT22;11785;49.500;8.288;2023-06-10T04:29:53;17.90;59.10
23233;DHT22;11785;49.500;8.288;2023-06-10T04:32:18;17.90;59.10
23233;DHT22;11785;49.500;8.288;2023-06-10T04:34:44;18.00;59.10
23233;DHT22;11785;49.500;8.288;2023-06-10T04:37:09;18.00;59.10
23233;DHT22;11785;49.500;8.288;2023-06-10T04:39:35;18.00;59.10
23233;DHT22;11785;49.500;8.288;2023-06-10T04:42:01;18.10;59.10
23233;DHT22;11785;49.500;8.288;2023-06-10T04:44:27;18.10;59.10
23233;DHT22;11785;49.500;8.288;2023-06-10T04:46:52;18.10;59.10
23233;DHT22;11785;49.500;8.288;2023-06-10T04:49:18;18.20;59.10
23233;DHT22;11785;49.500;8.288;2023-06-10T04:51:43;18.20;59.10
23233;DHT22;11785;49.500;8.288;2023-06-10T04:54:09;18.30;59.10
23233;DHT22;11785;49.500;8.288;2023-06-10T04:56:34;18.30;59.10
23233;DHT22;11785;49.500;8.288;2023-06-10T04:59:00;18.40;59.10
23233;DHT22;11785;49.500;8.288;2023-06-10T05:01:26;18.50;59.00
23233;DHT22;11785;49.500;8.288;2023-06-10T05:03:52;18.60;59.00
23233;DHT22;11785;49.500;8.288;2023-06-10T05:06:18;18.70;58.90
23233;DHT22;11785;49.500;8.288;2023-06-10T05:08:44;18.70;58.90
23233;DHT22;11785;49.500;8.288;2023-06-10T05:11:09;18.80;58.90
23233;DHT22;11785;49.500;8.288;2023-06-10T05:13:35;18.90;58.80
23233;DHT22;11785;49.500;8.288;2023-06-10T05:16:01;19.00;58.80
23233;DHT22;11785;49.500;8.288;2023-06-10T05:18:26;19.10;58.80
23233;DHT22;11785;49.500;8.288;2023-06-10T05:20:52;19.10;58.80
23233;DHT22;11785;49.500;8.288;2023-06-10T05:23:19;19.20;58.70
23233;DHT22;11785;49.500;8.288;2023-06-10T05:25:44;19.20;58.70
23233;DHT22;11785;49.500;8.288;2023-06-10T05:28:10;19.30;58.70
23233;DHT22;11785;49.500;8.288;2023-06-10T05:30:36;19.40;58.70
23233;DHT22;11785;49.500;8.288;2023-06-10T05:33:03;19.50;58.60
23233;DHT22;11785;49.500;8.288;2023-06-10T05:35:29;19.50;58.60
23233;DHT22;11785;49.500;8.288;2023-06-10T05:37:55;19.50;58.60
23233;DHT22;11785;49.500;8.288;2023-06-10T05:40:20;19.60;58.60
23233;DHT22;11785;49.500;8.288;2023-06-10T05:42:46;19.60;58.60
23233;DHT22;11785;49.500;8.288;2023-06-10T05:45:12;19.70;58.50
23233;DHT22;11785;49.500;8.288;2023-06-10T05:47:38;19.80;58.50
23233;DHT22;11785;49.500;8.288;2023-06-10T05:50:04;19.90;58.50
23233;DHT22;11785;49.500;8.288;2023-06-10T05:52:35;20.00;58.50
23233;DHT22;11785;49.500;8.288;2023-06-10T05:55:04;20.20;58.40
23233;DHT22;11785;49.500;8.288;2023-06-10T05:57:30;20.30;58.30
23233;DHT22;11785;49.500;8.288;2023-06-10T05:59:56;20.40;58.30
23233;DHT22;11785;49.500;8.288;2023-06-10T06:02:21;20.50;58.30
23233;DHT22;11785;49.500;8.288;2023-06-10T06:04:47;20.60;58.20
23233;DHT22;11785;49.500;8.288;2023-06-10T06:07:12;20.60;58.10
23233;DHT22;11785;49.500;8.288;2023-06-10T06:09:38;20.70;58.10
23233;DHT22;11785;49.500;8.288;2023-06-10T06:12:04;20.70;58.00
23233;DHT22;11785;49.500;8.288;2023-06-10T06:14:31;20.80;58.00
23233;DHT22;11785;49.500;8.288;2023-06-10T06:17:00;20.90;58.00
23233;DHT22;11785;49.500;8.288;2023-06-10T06:19:25;21.00;57.90
23233;DHT22;11785;49.500;8.288;2023-06-10T06:21:51;21.10;57.90
23233;DHT22;11785;49.500;8.288;2023-06-10T06:24:16;21.10;57.90
23233;DHT22;11785;49.500;8.288;2023-06-10T06:26:42;21.10;57.80
23233;DHT22;11785;49.500;8.288;2023-06-10T06:29:07;21.30;57.80
23233;DHT22;11785;49.500;8.288;2023-06-10T06:31:33;21.40;57.70
23233;DHT22;11785;49.500;8.288;2023-06-10T06:33:58;21.60;57.70
23233;DHT22;11785;49.500;8.288;2023-06-10T06:36:24;21.60;57.70
23233;DHT22;11785;49.500;8.288;2023-06-10T06:38:50;21.70;57.60
23233;DHT22;11785;49.500;8.288;2023-06-10T06:41:15;21.80;57.60
23233;DHT22;11785;49.500;8.288;2023-06-10T06:43:41;21.90;57.60
23233;DHT22;11785;49.500;8.288;2023-06-10T06:46:07;21.90;57.50
23233;DHT22;11785;49.500;8.288;2023-06-10T06:48:33;22.00;57.50
23233;DHT22;11785;49.500;8.288;2023-06-10T06:50:58;22.10;57.40
23233;DHT22;11785;49.500;8.288;2023-06-10T06:53:25;22.20;57.40
23233;DHT22;11785;49.500;8.288;2023-06-10T06:55:50;22.30;57.40
23233;DHT22;11785;49.500;8.288;2023-06-10T06:58:16;22.40;57.30
23233;DHT22;11785;49.500;8.288;2023-06-10T07:00:41;22.40;57.30
23233;DHT22;11785;49.500;8.288;2023-06-10T07:03:07;22.50;57.30
23233;DHT22;11785;49.500;8.288;2023-06-10T07:05:33;22.50;57.20
23233;DHT22;11785;49.500;8.288;2023-06-10T07:07:58;22.60;57.20
23233;DHT22;11785;49.500;8.288;2023-06-10T07:10:25;22.70;57.20
23233;DHT22;11785;49.500;8.288;2023-06-10T07:12:51;22.70;57.20
23233;DHT22;11785;49.500;8.288;2023-06-10T07:15:17;22.80;57.10
23233;DHT22;11785;49.500;8.288;2023-06-10T07:17:43;22.90;57.10
23233;DHT22;11785;49.500;8.288;2023-06-10T07:20:09;23.10;57.10
23233;DHT22;11785;49.500;8.288;2023-06-10T07:22:35;23.20;57.00
23233;DHT22;11785;49.500;8.288;2023-06-10T07:25:01;23.20;57.00
23233;DHT22;11785;49.500;8.288;2023-06-10T07:27:26;23.20;56.90
23233;DHT22;11785;49.500;8.288;2023-06-10T07:29:52;23.30;56.90
23233;DHT22;11785;49.500;8.288;2023-06-10T07:32:18;23.50;56.90
23233;DHT22;11785;49.500;8.288;2023-06-10T07:34:45;23.80;56.80
23233;DHT22;11785;49.500;8.288;2023-06-10T07:37:11;23.70;56.80
23233;DHT22;11785;49.500;8.288;2023-06-10T07:39:36;23.70;56.80
23233;DHT22;11785;49.500;8.288;2023-06-10T07:42:02;23.90;56.70
23233;DHT22;11785;49.500;8.288;2023-06-10T07:44:28;24.10;56.60
23233;DHT22;11785;49.500;8.288;2023-06-10T07:46:53;24.20;56.60
23233;DHT22;11785;49.500;8.288;2023-06-10T07:49:19;24.30;56.60
23233;DHT22;11785;49.500;8.288;2023-06-10T07:51:44;24.50;56.50
23233;DHT22;11785;49.500;8.288;2023-06-10T07:54:10;24.50;56.50
23233;DHT22;11785;49.500;8.288;2023-06-10T07:56:37;24.60;56.40
23233;DHT22;11785;49.500;8.288;2023-06-10T07:59:03;24.60;56.40
23233;DHT22;11785;49.500;8.288;2023-06-10T08:01:28;24.50;56.40
23233;DHT22;11785;49.500;8.288;2023-06-10T08:03:55;24.60;56.40
23233;DHT22;11785;49.500;8.288;2023-06-10T08:06:21;24.80;56.40
23233;DHT22;11785;49.500;8.288;2023-06-10T08:08:46;25.00;51.50
23233;DHT22;11785;49.500;8.288;2023-06-10T08:11:12;25.00;51.60
23233;DHT22;11785;49.500;8.288;2023-06-10T08:13:38;24.90;56.20
23233;DHT22;11785;49.500;8.288;2023-06-10T08:16:04;24.90;56.20
23233;DHT22;11785;49.500;8.288;2023-06-10T08:18:29;25.00;51.60
23233;DHT22;11785;49.500;8.288;2023-06-10T08:20:55;25.10;45.90
23233;DHT22;11785;49.500;8.288;2023-06-10T08:23:21;25.20;45.90
23233;DHT22;11785;49.500;8.288;2023-06-10T08:25:46;25.40;46.00
23233;DHT22;11785;49.500;8.288;2023-06-10T08:28:12;25.40;46.00
23233;DHT22;11785;49.500;8.288;2023-06-10T08:30:37;25.40;46.00
23233;DHT22;11785;49.500;8.288;2023-06-10T08:33:03;25.50;46.00
23233;DHT22;11785;49.500;8.288;2023-06-10T08:35:28;25.60;46.10
23233;DHT22;11785;49.500;8.288;2023-06-10T08:37:54;25.80;46.10
23233;DHT22;11785;49.500;8.288;2023-06-10T08:40:20;26.00;46.20
23233;DHT22;11785;49.500;8.288;2023-06-10T08:42:49;26.00;46.20
23233;DHT22;11785;49.500;8.288;2023-06-10T08:45:18;26.10;46.20
23233;DHT22;11785;49.500;8.288;2023-06-10T08:47:50;26.30;46.30
23233;DHT22;11785;49.500;8.288;2023-06-10T08:50:19;26.50;46.40
23233;DHT22;11785;49.500;8.288;2023-06-10T08:52:48;26.50;46.40
23233;DHT22;11785;49.500;8.288;2023-06-10T08:55:18;26.60;46.40
23233;DHT22;11785;49.500;8.288;2023-06-10T08:57:48;26.70;46.50
23233;DHT22;11785;49.500;8.288;2023-06-10T09:00:15;26.90;46.60
23233;DHT22;11785;49.500;8.288;2023-06-10T09:02:42;26.70;46.60
23233;DHT22;11785;49.500;8.288;2023-06-10T09:05:09;26.60;46.50
23233;DHT22;11785;49.500;8.288;2023-06-10T09:07:35;26.40;46.40
23233;DHT22;11785;49.500;8.288;2023-06-10T09:10:03;26.60;46.50
23233;DHT22;11785;49.500;8.288;2023-06-10T09:12:29;26.80;46.60
23233;DHT22;11785;49.500;8.288;2023-06-10T09:14:55;27.00;46.60
23233;DHT22;11785;49.500;8.288;2023-06-10T09:17:20;27.20;46.70
23233;DHT22;11785;49.500;8.288;2023-06-10T09:19:46;27.30;46.70
23233;DHT22;11785;49.500;8.288;2023-06-10T09:22:12;27.70;46.90
23233;DHT22;11785;49.500;8.288;2023-06-10T09:24:38;27.90;47.00
23233;DHT22;11785;49.500;8.288;2023-06-10T09:27:06;27.80;47.00
23233;DHT22;11785;49.500;8.288;2023-06-10T09:29:45;28.00;47.00
23233;DHT22;11785;49.500;8.288;2023-06-10T09:32:12;28.20;47.10
23233;DHT22;11785;49.500;8.288;2023-06-10T09:34:38;28.20;47.20
23233;DHT22;11785;49.500;8.288;2023-06-10T09:37:03;28.40;47.20
23233;DHT22;11785;49.500;8.288;2023-06-10T09:39:30;28.40;47.20
23233;DHT22;11785;49.500;8.288;2023-06-10T09:41:56;28.40;47.20
23233;DHT22;11785;49.500;8.288;2023-06-10T09:44:22;28.30;47.20
23233;DHT22;11785;49.500;8.288;2023-06-10T09:46:49;28.30;47.20
23233;DHT22;11785;49.500;8.288;2023-06-10T09:49:16;28.40;47.20
23233;DHT22;11785;49.500;8.288;2023-06-10T09:51:52;28.40;47.20
23233;DHT22;11785;49.500;8.288;2023-06-10T09:54:19;28.40;47.20
23233;DHT22;11785;49.500;8.288;2023-06-10T09:56:47;28.30;47.20
23233;DHT22;11785;49.500;8.288;2023-06-10T09:59:13;28.40;47.30
23233;DHT22;11785;49.500;8.288;2023-06-10T10:01:39;28.50;47.30
23233;DHT22;11785;49.500;8.288;2023-06-10T10:04:04;28.20;47.20
23233;DHT22;11785;49.500;8.288;2023-06-10T10:06:30;28.40;47.20
23233;DHT22;11785;49.500;8.288;2023-06-10T10:08:55;28.90;47.40
23233;DHT22;11785;49.500;8.288;2023-06-10T10:11:22;29.10;47.50
23233;DHT22;11785;49.500;8.288;2023-06-10T10:13:52;29.20;47.50
23233;DHT22;11785;49.500;8.288;2023-06-10T10:16:25;29.40;47.60
23233;DHT22;11785;49.500;8.288;2023-06-10T10:18:55;29.40;47.60
23233;DHT22;11785;49.500;8.288;2023-06-10T10:21:24;28.80;47.50
23233;DHT22;11785;49.500;8.288;2023-06-10T10:24:16;28.90;47.50
23233;DHT22;11785;49.500;8.288;2023-06-10T10:26:41;29.00;47.50
23233;DHT22;11785;49.500;8.288;2023-06-10T10:29:15;29.40;47.70
23233;DHT22;11785;49.500;8.288;2023-06-10T10:31:42;29.20;47.60
23233;DHT22;11785;49.500;8.288;2023-06-10T10:34:16;29.50;47.60
23233;DHT22;11785;49.500;8.288;2023-06-10T10:36:44;29.90;47.80
23233;DHT22;11785;49.500;8.288;2023-06-10T10:39:11;30.10;47.90
23233;DHT22;11785;49.500;8.288;2023-06-10T10:41:38;29.90;47.80
23233;DHT22;11785;49.500;8.288;2023-06-10T10:44:06;29.60;47.80
23233;DHT22;11785;49.500;8.288;2023-06-10T10:46:49;29.60;47.80
23233;DHT22;11785;49.500;8.288;2023-06-10T10:49:16;29.80;47.90
23233;DHT22;11785;49.500;8.288;2023-06-10T10:51:56;30.00;47.90
23233;DHT22;11785;49.500;8.288;2023-06-10T10:54:35;30.40;48.10
23233;DHT22;11785;49.500;8.288;2023-06-10T10:57:16;30.30;48.10
23233;DHT22;11785;49.500;8.288;2023-06-10T11:02:37;30.30;48.10
23233;DHT22;11785;49.500;8.288;2023-06-10T11:05:06;30.20;48.10
23233;DHT22;11785;49.500;8.288;2023-06-10T11:07:33;30.00;48.00
23233;DHT22;11785;49.500;8.288;2023-06-10T11:10:01;30.00;48.00
23233;DHT22;11785;49.500;8.288;2023-06-10T11:15:24;31.10;48.40
23233;DHT22;11785;49.500;8.288;2023-06-10T11:18:30;31.60;48.70
23233;DHT22;11785;49.500;8.288;2023-06-10T11:21:04;31.70;48.70
23233;DHT22;11785;49.500;8.288;2023-06-10T11:23:32;31.40;48.60
23233;DHT22;11785;49.500;8.288;2023-06-10T11:26:21;31.60;48.70
23233;DHT22;11785;49.500;8.288;2023-06-10T11:33:56;31.90;48.90
23233;DHT22;11785;49.500;8.288;2023-06-10T11:36:23;31.40;48.70
23233;DHT22;11785;49.500;8.288;2023-06-10T11:38:50;30.90;48.50
23233;DHT22;11785;49.500;8.288;2023-06-10T11:41:18;30.60;48.40
23233;DHT22;11785;49.500;8.288;2023-06-10T11:43:44;31.00;48.60
23233;DHT22;11785;49.500;8.288;2023-06-10T11:46:11;31.40;48.70
23233;DHT22;11785;49.500;8.288;2023-06-10T11:48:37;31.60;48.80
23233;DHT22;11785;49.500;8.288;2023-06-10T11:51:09;31.80;48.90
23233;DHT22;11785;49.500;8.288;2023-06-10T11:53:34;32.40;49.00
23233;DHT22;11785;49.500;8.288;2023-06-10T11:56:00;32.90;49.20
23233;DHT22;11785;49.500;8.288;2023-06-10T11:58:26;33.80;49.50
23233;DHT22;11785;49.500;8.288;2023-06-10T12:00:54;34.60;49.80
23233;DHT22;11785;49.500;8.288;2023-06-10T12:03:22;35.70;50.20
23233;DHT22;11785;49.500;8.288;2023-06-10T12:06:01;35.60;50.20
23233;DHT22;11785;49.500;8.288;2023-06-10T12:08:27;36.30;50.40
23233;DHT22;11785;49.500;8.288;2023-06-10T12:10:54;36.70;50.60
23233;DHT22;11785;49.500;8.288;2023-06-10T12:13:20;35.30;50.20
23233;DHT22;11785;49.500;8.288;2023-06-10T12:15:46;35.20;50.10
23233;DHT22;11785;49.500;8.288;2023-06-10T12:18:22;35.70;50.30
23233;DHT22;11785;49.500;8.288;2023-06-10T12:20:48;35.90;50.30
23233;DHT22;11785;49.500;8.288;2023-06-10T12:23:14;36.00;50.40
23233;DHT22;11785;49.500;8.288;2023-06-10T12:25:52;35.40;50.20
23233;DHT22;11785;49.500;8.288;2023-06-10T12:28:27;36.00;50.40
23233;DHT22;11785;49.500;8.288;2023-06-10T12:31:13;37.10;50.80
23233;DHT22;11785;49.500;8.288;2023-06-10T12:33:38;36.90;50.70
23233;DHT22;11785;49.500;8.288;2023-06-10T12:36:04;37.00;50.70
23233;DHT22;11785;49.500;8.288;2023-06-10T12:38:30;36.20;50.50
23233;DHT22;11785;49.500;8.288;2023-06-10T12:41:02;35.00;50.10
23233;DHT22;11785;49.500;8.288;2023-06-10T12:43:31;36.40;50.50
23233;DHT22;11785;49.500;8.288;2023-06-10T12:46:08;37.80;51.00
23233;DHT22;11785;49.500;8.288;2023-06-10T12:48:34;39.00;51.40
23233;DHT22;11785;49.500;8.288;2023-06-10T12:51:00;38.90;51.40
23233;DHT22;11785;49.500;8.288;2023-06-10T12:53:26;38.90;51.40
23233;DHT22;11785;49.500;8.288;2023-06-10T12:55:52;38.00;51.10
23233;DHT22;11785;49.500;8.288;2023-06-10T12:58:22;37.80;51.10
23233;DHT22;11785;49.500;8.288;2023-06-10T13:00:48;38.90;51.40
23233;DHT22;11785;49.500;8.288;2023-06-10T13:03:15;38.20;51.20
23233;DHT22;11785;49.500;8.288;2023-06-10T13:05:40;36.40;50.60
23233;DHT22;11785;49.500;8.288;2023-06-10T13:08:07;36.20;50.50
23233;DHT22;11785;49.500;8.288;2023-06-10T13:10:35;36.70;50.70
23233;DHT22;11785;49.500;8.288;2023-06-10T13:13:01;37.10;50.80
23233;DHT22;11785;49.500;8.288;2023-06-10T13:15:28;36.90;50.80
23233;DHT22;11785;49.500;8.288;2023-06-10T13:17:53;37.50;50.90
23233;DHT22;11785;49.500;8.288;2023-06-10T13:20:19;38.90;51.40
23233;DHT22;11785;49.500;8.288;2023-06-10T13:22:46;40.10;51.80
23233;DHT22;11785;49.500;8.288;2023-06-10T13:25:12;40.50;52.00
23233;DHT22;11785;49.500;8.288;2023-06-10T13:27:38;40.80;52.00
23233;DHT22;11785;49.500;8.288;2023-06-10T13:30:08;41.10;52.10
23233;DHT22;11785;49.500;8.288;2023-06-10T13:32:35;39.60;51.70
23233;DHT22;11785;49.500;8.288;2023-06-10T13:35:00;38.10;51.20
23233;DHT22;11785;49.500;8.288;2023-06-10T13:37:26;39.00;51.50
23233;DHT22;11785;49.500;8.288;2023-06-10T13:39:52;37.40;51.00
23233;DHT22;11785;49.500;8.288;2023-06-10T13:42:18;36.20;50.60
23233;DHT22;11785;49.500;8.288;2023-06-10T13:44:44;34.70;50.10
23233;DHT22;11785;49.500;8.288;2023-06-10T13:47:12;33.80;49.80
23233;DHT22;11785;49.500;8.288;2023-06-10T13:49:37;33.10;49.50
23233;DHT22;11785;49.500;8.288;2023-06-10T13:52:03;32.50;49.40
23233;DHT22;11785;49.500;8.288;2023-06-10T13:54:29;35.00;50.10
23233;DHT22;11785;49.500;8.288;2023-06-10T13:56:54;38.10;51.20
23233;DHT22;11785;49.500;8.288;2023-06-10T13:59:20;40.60;52.00
23233;DHT22;11785;49.500;8.288;2023-06-10T14:01:46;40.50;52.00
23233;DHT22;11785;49.500;8.288;2023-06-10T14:04:12;38.80;51.50
23233;DHT22;11785;49.500;8.288;2023-06-10T14:06:38;37.00;50.90
23233;DHT22;11785;49.500;8.288;2023-06-10T14:09:04;35.30;50.30
23233;DHT22;11785;49.500;8.288;2023-06-10T14:11:30;34.20;50.00
23233;DHT22;11785;49.500;8.288;2023-06-10T14:13:55;33.40;49.70
23233;DHT22;11785;49.500;8.288;2023-06-10T14:16:24;32.90;49.50
23233;DHT22;11785;49.500;8.288;2023-06-10T14:18:50;32.40;49.30
23233;DHT22;11785;49.500;8.288;2023-06-10T14:21:19;31.90;49.10
23233;DHT22;11785;49.500;8.288;2023-06-10T14:23:44;31.50;49.00
23233;DHT22;11785;49.500;8.288;2023-06-10T14:26:10;31.40;49.00
23233;DHT22;11785;49.500;8.288;2023-06-10T14:28:36;31.40;49.00
23233;DHT22;11785;49.500;8.288;2023-06-10T14:31:01;34.10;49.80
23233;DHT22;11785;49.500;8.288;2023-06-10T14:33:27;37.50;50.90
23233;DHT22;11785;49.500;8.288;2023-06-10T14:35:53;40.60;52.00
23233;DHT22;11785;49.500;8.288;2023-06-10T14:38:18;42.60;52.60
23233;DHT22;11785;49.500;8.288;2023-06-10T14:40:44;41.90;52.50
23233;DHT22;11785;49.500;8.288;2023-06-10T14:43:12;41.80;52.40
23233;DHT22;11785;49.500;8.288;2023-06-10T14:45:39;43.50;53.00
23233;DHT22;11785;49.500;8.288;2023-06-10T14:48:06;45.00;53.50
23233;DHT22;11785;49.500;8.288;2023-06-10T14:50:31;44.70;53.40
23233;DHT22;11785;49.500;8.288;2023-06-10T14:52:58;44.40;53.30
23233;DHT22;11785;49.500;8.288;2023-06-10T14:55:23;44.40;53.30
23233;DHT22;11785;49.500;8.288;2023-06-10T14:57:49;42.90;52.90
23233;DHT22;11785;49.500;8.288;2023-06-10T15:00:15;40.60;52.20
23233;DHT22;11785;49.500;8.288;2023-06-10T15:02:45;39.30;51.80
23233;DHT22;11785;49.500;8.288;2023-06-10T15:05:13;37.90;51.30
23233;DHT22;11785;49.500;8.288;2023-06-10T15:07:40;37.10;51.00
23233;DHT22;11785;49.500;8.288;2023-06-10T15:10:06;36.50;50.80
23233;DHT22;11785;49.500;8.288;2023-06-10T15:12:31;36.30;50.70
23233;DHT22;11785;49.500;8.288;2023-06-10T15:14:57;35.90;50.60
23233;DHT22;11785;49.500;8.288;2023-06-10T15:17:22;35.80;50.60
23233;DHT22;11785;49.500;8.288;2023-06-10T15:19:48;35.80;50.60
23233;DHT22;11785;49.500;8.288;2023-06-10T15:22:13;35.70;50.50
23233;DHT22;11785;49.500;8.288;2023-06-10T15:24:39;35.40;50.40
23233;DHT22;11785;49.500;8.288;2023-06-10T15:27:05;35.00;50.30
23233;DHT22;11785;49.500;8.288;2023-06-10T15:29:31;34.40;50.10
23233;DHT22;11785;49.500;8.288;2023-06-10T15:31:56;34.00;50.00
23233;DHT22;11785;49.500;8.288;2023-06-10T15:34:22;33.50;49.80
23233;DHT22;11785;49.500;8.288;2023-06-10T15:36:47;33.00;49.60
23233;DHT22;11785;49.500;8.288;2023-06-10T15:39:13;32.70;49.40
23233;DHT22;11785;49.500;8.288;2023-06-10T15:41:39;32.30;49.30